sensor_id;sensor_type;location;lat;lon;timestamp;P1;durP1;ratioP1;P2;durP2;ratioP2
79401;SDS011;68857;47.916;106.940;2023-10-31T00:02:14;20.92;;;10.23;;
79401;SDS011;68857;47.916;106.940;2023-10-31T00:04:41;20.55;;;9.95;;
79401;SDS011;68857;47.916;106.940;2023-10-31T00:07:07;20.00;;;9.20;;
79401;SDS011;68857;47.916;106.940;2023-10-31T00:09:34;19.13;;;9.90;;
79401;SDS011;68857;47.916;106.940;2023-10-31T00:14:27;21.00;;;9.30;;
79401;SDS011;68857;47.916;106.940;2023-10-31T00:16:53;17.88;;;9.10;;
79401;SDS011;68857;47.916;106.940;2023-10-31T00:19:20;17.90;;;8.57;;
79401;SDS011;68857;47.916;106.940;2023-10-31T00:21:47;18.20;;;8.23;;
79401;SDS011;68857;47.916;106.940;2023-10-31T00:24:13;17.17;;;8.18;;
79401;SDS011;68857;47.916;106.940;2023-10-31T00:26:40;16.88;;;7.85;;
79401;SDS011;68857;47.916;106.940;2023-10-31T00:29:06;16.73;;;9.10;;
79401;SDS011;68857;47.916;106.940;2023-10-31T00:31:33;18.17;;;8.60;;
79401;SDS011;68857;47.916;106.940;2023-10-31T00:34:00;16.58;;;8.45;;
79401;SDS011;68857;47.916;106.940;2023-10-31T00:36:27;18.33;;;8.88;;
79401;SDS011;68857;47.916;106.940;2023-10-31T00:38:54;17.85;;;9.50;;
79401;SDS011;68857;47.916;106.940;2023-10-31T00:41:20;17.75;;;8.95;;
79401;SDS011;68857;47.916;106.940;2023-10-31T00:43:47;18.40;;;9.38;;
79401;SDS011;68857;47.916;106.940;2023-10-31T00:46:14;17.33;;;9.70;;
79401;SDS011;68857;47.916;106.940;2023-10-31T00:48:40;21.05;;;9.25;;
79401;SDS011;68857;47.916;106.940;2023-10-31T00:51:07;18.27;;;8.93;;
79401;SDS011;68857;47.916;106.940;2023-10-31T00:56:00;20.65;;;10.43;;
79401;SDS011;68857;47.916;106.940;2023-10-31T00:58:26;21.02;;;9.20;;
79401;SDS011;68857;47.916;106.940;2023-10-31T01:00:53;19.23;;;9.10;;
79401;SDS011;68857;47.916;106.940;2023-10-31T01:03:20;21.73;;;10.80;;
79401;SDS011;68857;47.916;106.940;2023-10-31T01:05:46;19.85;;;10.57;;
79401;SDS011;68857;47.916;106.940;2023-10-31T01:08:13;20.00;;;9.43;;
79401;SDS011;68857;47.916;106.940;2023-10-31T01:10:39;19.02;;;10.30;;
79401;SDS011;68857;47.916;106.940;2023-10-31T01:13:06;19.77;;;9.35;;
79401;SDS011;68857;47.916;106.940;2023-10-31T01:15:33;23.50;;;10.43;;
79401;SDS011;68857;47.916;106.940;2023-10-31T01:17:59;19.30;;;10.70;;
79401;SDS011;68857;47.916;106.940;2023-10-31T01:20:26;20.13;;;10.30;;
79401;SDS011;68857;47.916;106.940;2023-10-31T01:22:53;19.38;;;9.63;;
79401;SDS011;68857;47.916;106.940;2023-10-31T01:25:20;20.70;;;10.38;;
79401;SDS011;68857;47.916;106.940;2023-10-31T01:27:46;21.42;;;11.00;;
79401;SDS011;68857;47.916;106.940;2023-10-31T01:30:13;19.95;;;9.43;;
79401;SDS011;68857;47.916;106.940;2023-10-31T01:32:39;21.67;;;10.73;;
79401;SDS011;68857;47.916;106.940;2023-10-31T01:35:06;20.40;;;9.82;;
79401;SDS011;68857;47.916;106.940;2023-10-31T01:37:33;19.60;;;9.95;;
79401;SDS011;68857;47.916;106.940;2023-10-31T01:39:59;19.63;;;9.45;;
79401;SDS011;68857;47.916;106.940;2023-10-31T01:42:26;19.38;;;9.80;;
79401;SDS011;68857;47.916;106.940;2023-10-31T01:44:53;22.23;;;10.18;;
79401;SDS011;68857;47.916;106.940;2023-10-31T01:47:19;16.60;;;9.13;;
79401;SDS011;68857;47.916;106.940;2023-10-31T01:49:47;21.13;;;10.45;;
79401;SDS011;68857;47.916;106.940;2023-10-31T01:52:14;22.10;;;11.60;;
79401;SDS011;68857;47.916;106.940;2023-10-31T01:54:41;19.73;;;10.68;;
79401;SDS011;68857;47.916;106.940;2023-10-31T01:57:07;20.13;;;9.30;;
79401;SDS011;68857;47.916;106.940;2023-10-31T02:02:00;18.67;;;9.82;;
79401;SDS011;68857;47.916;106.940;2023-10-31T02:04:27;18.20;;;9.55;;
79401;SDS011;68857;47.916;106.940;2023-10-31T02:06:54;20.02;;;9.95;;
79401;SDS011;68857;47.916;106.940;2023-10-31T02:11:50;21.48;;;10.68;;
79401;SDS011;68857;47.916;106.940;2023-10-31T02:14:16;21.48;;;11.60;;
79401;SDS011;68857;47.916;106.940;2023-10-31T02:19:09;23.02;;;10.70;;
79401;SDS011;68857;47.916;106.940;2023-10-31T02:21:39;19.38;;;11.02;;
79401;SDS011;68857;47.916;106.940;2023-10-31T02:24:06;21.77;;;11.48;;
79401;SDS011;68857;47.916;106.940;2023-10-31T02:26:33;23.15;;;10.77;;
79401;SDS011;68857;47.916;106.940;2023-10-31T02:29:00;23.60;;;11.45;;
79401;SDS011;68857;47.916;106.940;2023-10-31T02:31:27;22.23;;;11.40;;
79401;SDS011;68857;47.916;106.940;2023-10-31T02:33:54;23.67;;;12.23;;
79401;SDS011;68857;47.916;106.940;2023-10-31T02:36:20;23.98;;;13.55;;
79401;SDS011;68857;47.916;106.940;2023-10-31T02:38:48;23.08;;;11.68;;
79401;SDS011;68857;47.916;106.940;2023-10-31T02:41:15;24.42;;;12.48;;
79401;SDS011;68857;47.916;106.940;2023-10-31T02:43:42;27.30;;;13.75;;
79401;SDS011;68857;47.916;106.940;2023-10-31T02:46:09;25.58;;;13.77;;
79401;SDS011;68857;47.916;106.940;2023-10-31T02:48:37;29.40;;;12.77;;
79401;SDS011;68857;47.916;106.940;2023-10-31T02:51:05;24.88;;;12.57;;
79401;SDS011;68857;47.916;106.940;2023-10-31T02:53:35;28.60;;;14.07;;
79401;SDS011;68857;47.916;106.940;2023-10-31T02:56:02;29.23;;;13.93;;
79401;SDS011;68857;47.916;106.940;2023-10-31T02:58:28;25.23;;;12.60;;
79401;SDS011;68857;47.916;106.940;2023-10-31T03:03:21;25.65;;;13.68;;
79401;SDS011;68857;47.916;106.940;2023-10-31T03:05:48;27.95;;;13.82;;
79401;SDS011;68857;47.916;106.940;2023-10-31T03:08:15;26.00;;;14.50;;
79401;SDS011;68857;47.916;106.940;2023-10-31T03:10:46;30.88;;;15.77;;
79401;SDS011;68857;47.916;106.940;2023-10-31T03:13:15;27.05;;;14.45;;
79401;SDS011;68857;47.916;106.940;2023-10-31T03:15:42;29.98;;;15.23;;
79401;SDS011;68857;47.916;106.940;2023-10-31T03:18:09;28.45;;;14.63;;
79401;SDS011;68857;47.916;106.940;2023-10-31T03:20:36;28.33;;;14.15;;
79401;SDS011;68857;47.916;106.940;2023-10-31T03:23:02;29.48;;;15.05;;
79401;SDS011;68857;47.916;106.940;2023-10-31T03:25:29;28.83;;;15.20;;
79401;SDS011;68857;47.916;106.940;2023-10-31T03:27:56;27.55;;;14.15;;
79401;SDS011;68857;47.916;106.940;2023-10-31T03:30:23;27.23;;;13.48;;
79401;SDS011;68857;47.916;106.940;2023-10-31T03:32:49;25.67;;;13.25;;
79401;SDS011;68857;47.916;106.940;2023-10-31T03:35:16;26.85;;;13.05;;
79401;SDS011;68857;47.916;106.940;2023-10-31T03:37:42;27.58;;;13.32;;
79401;SDS011;68857;47.916;106.940;2023-10-31T03:40:09;27.15;;;13.43;;
79401;SDS011;68857;47.916;106.940;2023-10-31T03:42:36;23.70;;;12.07;;
79401;SDS011;68857;47.916;106.940;2023-10-31T03:45:02;24.80;;;13.65;;
79401;SDS011;68857;47.916;106.940;2023-10-31T03:47:30;24.60;;;12.60;;
79401;SDS011;68857;47.916;106.940;2023-10-31T03:49:56;26.02;;;12.85;;
79401;SDS011;68857;47.916;106.940;2023-10-31T03:52:23;26.77;;;13.52;;
79401;SDS011;68857;47.916;106.940;2023-10-31T03:54:50;25.13;;;12.45;;
79401;SDS011;68857;47.916;106.940;2023-10-31T03:57:17;25.95;;;13.02;;
79401;SDS011;68857;47.916;106.940;2023-10-31T03:59:43;26.15;;;12.73;;
79401;SDS011;68857;47.916;106.940;2023-10-31T04:02:10;23.58;;;13.52;;
79401;SDS011;68857;47.916;106.940;2023-10-31T04:04:36;23.73;;;12.27;;
79401;SDS011;68857;47.916;106.940;2023-10-31T04:07:03;22.38;;;11.38;;
79401;SDS011;68857;47.916;106.940;2023-10-31T04:09:30;22.17;;;12.10;;
79401;SDS011;68857;47.916;106.940;2023-10-31T04:11:57;21.67;;;11.65;;
79401;SDS011;68857;47.916;106.940;2023-10-31T04:14:23;22.40;;;11.25;;
79401;SDS011;68857;47.916;106.940;2023-10-31T04:19:16;21.95;;;11.13;;
79401;SDS011;68857;47.916;106.940;2023-10-31T04:21:43;21.90;;;11.20;;
79401;SDS011;68857;47.916;106.940;2023-10-31T04:24:09;21.77;;;10.45;;
79401;SDS011;68857;47.916;106.940;2023-10-31T04:26:36;17.08;;;8.75;;
79401;SDS011;68857;47.916;106.940;2023-10-31T04:31:28;18.17;;;8.88;;
79401;SDS011;68857;47.916;106.940;2023-10-31T04:33:55;16.77;;;8.35;;
79401;SDS011;68857;47.916;106.940;2023-10-31T04:36:21;18.90;;;9.43;;
79401;SDS011;68857;47.916;106.940;2023-10-31T04:38:48;18.20;;;9.35;;
79401;SDS011;68857;47.916;106.940;2023-10-31T04:41:15;17.90;;;9.02;;
79401;SDS011;68857;47.916;106.940;2023-10-31T04:43:41;16.90;;;8.55;;
79401;SDS011;68857;47.916;106.940;2023-10-31T04:46:09;14.80;;;8.80;;
79401;SDS011;68857;47.916;106.940;2023-10-31T04:48:36;13.85;;;7.55;;
79401;SDS011;68857;47.916;106.940;2023-10-31T04:51:02;16.75;;;7.78;;
79401;SDS011;68857;47.916;106.940;2023-10-31T04:53:28;16.00;;;8.05;;
79401;SDS011;68857;47.916;106.940;2023-10-31T04:55:57;15.05;;;7.57;;
79401;SDS011;68857;47.916;106.940;2023-10-31T04:58:23;18.25;;;9.32;;
79401;SDS011;68857;47.916;106.940;2023-10-31T05:03:16;14.52;;;7.15;;
79401;SDS011;68857;47.916;106.940;2023-10-31T05:05:43;16.67;;;8.50;;
79401;SDS011;68857;47.916;106.940;2023-10-31T05:08:09;16.40;;;7.78;;
79401;SDS011;68857;47.916;106.940;2023-10-31T05:10:36;16.13;;;8.13;;
79401;SDS011;68857;47.916;106.940;2023-10-31T05:13:02;15.38;;;8.88;;
79401;SDS011;68857;47.916;106.940;2023-10-31T05:15:29;14.65;;;7.72;;
79401;SDS011;68857;47.916;106.940;2023-10-31T05:17:56;16.08;;;8.05;;
79401;SDS011;68857;47.916;106.940;2023-10-31T05:20:22;14.48;;;7.70;;
79401;SDS011;68857;47.916;106.940;2023-10-31T05:22:48;16.65;;;7.97;;
79401;SDS011;68857;47.916;106.940;2023-10-31T05:25:15;14.30;;;7.75;;
79401;SDS011;68857;47.916;106.940;2023-10-31T05:27:42;14.15;;;6.70;;
79401;SDS011;68857;47.916;106.940;2023-10-31T05:30:09;14.25;;;7.28;;
79401;SDS011;68857;47.916;106.940;2023-10-31T05:32:36;16.00;;;9.80;;
79401;SDS011;68857;47.916;106.940;2023-10-31T05:35:02;14.20;;;7.43;;
79401;SDS011;68857;47.916;106.940;2023-10-31T05:37:29;13.77;;;7.10;;
79401;SDS011;68857;47.916;106.940;2023-10-31T05:42:21;12.82;;;9.63;;
79401;SDS011;68857;47.916;106.940;2023-10-31T05:44:49;13.10;;;7.38;;
79401;SDS011;68857;47.916;106.940;2023-10-31T05:47:16;13.93;;;7.30;;
79401;SDS011;68857;47.916;106.940;2023-10-31T05:49:43;13.15;;;7.03;;
79401;SDS011;68857;47.916;106.940;2023-10-31T05:52:09;14.88;;;11.73;;
79401;SDS011;68857;47.916;106.940;2023-10-31T05:54:36;13.30;;;6.93;;
79401;SDS011;68857;47.916;106.940;2023-10-31T05:59:29;15.68;;;9.25;;
79401;SDS011;68857;47.916;106.940;2023-10-31T06:04:21;13.93;;;6.50;;
79401;SDS011;68857;47.916;106.940;2023-10-31T06:06:49;13.85;;;6.57;;
79401;SDS011;68857;47.916;106.940;2023-10-31T06:09:15;11.02;;;6.28;;
79401;SDS011;68857;47.916;106.940;2023-10-31T06:14:08;11.65;;;5.90;;
79401;SDS011;68857;47.916;106.940;2023-10-31T06:16:39;13.60;;;6.85;;
79401;SDS011;68857;47.916;106.940;2023-10-31T06:19:07;11.02;;;5.75;;
79401;SDS011;68857;47.916;106.940;2023-10-31T06:21:33;11.25;;;7.28;;
79401;SDS011;68857;47.916;106.940;2023-10-31T06:24:00;13.18;;;6.65;;
79401;SDS011;68857;47.916;106.940;2023-10-31T06:26:27;12.18;;;7.63;;
79401;SDS011;68857;47.916;106.940;2023-10-31T06:28:54;13.02;;;7.28;;
79401;SDS011;68857;47.916;106.940;2023-10-31T06:31:21;10.38;;;5.93;;
79401;SDS011;68857;47.916;106.940;2023-10-31T06:36:13;14.77;;;6.43;;
79401;SDS011;68857;47.916;106.940;2023-10-31T06:38:40;12.40;;;6.32;;
79401;SDS011;68857;47.916;106.940;2023-10-31T06:43:33;12.65;;;5.75;;
79401;SDS011;68857;47.916;106.940;2023-10-31T06:46:00;10.85;;;5.65;;
79401;SDS011;68857;47.916;106.940;2023-10-31T06:48:29;12.07;;;6.47;;
79401;SDS011;68857;47.916;106.940;2023-10-31T06:53:21;12.02;;;6.90;;
79401;SDS011;68857;47.916;106.940;2023-10-31T06:55:48;10.57;;;5.70;;
79401;SDS011;68857;47.916;106.940;2023-10-31T06:58:15;11.15;;;6.85;;
79401;SDS011;68857;47.916;106.940;2023-10-31T07:00:41;11.65;;;6.18;;
79401;SDS011;68857;47.916;106.940;2023-10-31T07:05:37;11.45;;;6.03;;
79401;SDS011;68857;47.916;106.940;2023-10-31T07:08:04;13.50;;;6.57;;
79401;SDS011;68857;47.916;106.940;2023-10-31T07:10:30;12.15;;;6.15;;
79401;SDS011;68857;47.916;106.940;2023-10-31T07:12:58;10.98;;;5.88;;
79401;SDS011;68857;47.916;106.940;2023-10-31T07:15:25;11.13;;;5.78;;
79401;SDS011;68857;47.916;106.940;2023-10-31T07:17:52;12.25;;;5.93;;
79401;SDS011;68857;47.916;106.940;2023-10-31T07:20:18;11.70;;;6.00;;
79401;SDS011;68857;47.916;106.940;2023-10-31T07:22:45;11.57;;;5.97;;
79401;SDS011;68857;47.916;106.940;2023-10-31T07:27:38;10.80;;;5.07;;
79401;SDS011;68857;47.916;106.940;2023-10-31T07:30:04;12.57;;;6.03;;
79401;SDS011;68857;47.916;106.940;2023-10-31T07:32:31;11.65;;;5.78;;
79401;SDS011;68857;47.916;106.940;2023-10-31T07:34:58;11.88;;;6.43;;
79401;SDS011;68857;47.916;106.940;2023-10-31T07:37:25;12.52;;;6.63;;
79401;SDS011;68857;47.916;106.940;2023-10-31T07:39:51;13.38;;;6.05;;
79401;SDS011;68857;47.916;106.940;2023-10-31T07:42:18;11.20;;;6.55;;
79401;SDS011;68857;47.916;106.940;2023-10-31T07:44:45;12.73;;;5.97;;
79401;SDS011;68857;47.916;106.940;2023-10-31T07:47:11;13.88;;;6.57;;
79401;SDS011;68857;47.916;106.940;2023-10-31T07:49:38;13.27;;;7.32;;
79401;SDS011;68857;47.916;106.940;2023-10-31T07:52:05;14.18;;;6.45;;
79401;SDS011;68857;47.916;106.940;2023-10-31T07:54:32;13.02;;;6.70;;
79401;SDS011;68857;47.916;106.940;2023-10-31T07:56:58;11.50;;;6.20;;
79401;SDS011;68857;47.916;106.940;2023-10-31T07:59:25;15.32;;;7.78;;
79401;SDS011;68857;47.916;106.940;2023-10-31T08:01:52;15.15;;;7.40;;
79401;SDS011;68857;47.916;106.940;2023-10-31T08:04:19;12.95;;;6.28;;
79401;SDS011;68857;47.916;106.940;2023-10-31T08:06:45;12.27;;;6.22;;
79401;SDS011;68857;47.916;106.940;2023-10-31T08:09:12;13.18;;;6.70;;
79401;SDS011;68857;47.916;106.940;2023-10-31T08:11:38;13.23;;;6.43;;
79401;SDS011;68857;47.916;106.940;2023-10-31T08:14:05;13.25;;;6.22;;
79401;SDS011;68857;47.916;106.940;2023-10-31T08:16:32;14.00;;;7.50;;
79401;SDS011;68857;47.916;106.940;2023-10-31T08:18:59;13.77;;;6.82;;
79401;SDS011;68857;47.916;106.940;2023-10-31T08:21:25;13.85;;;6.82;;
79401;SDS011;68857;47.916;106.940;2023-10-31T08:23:57;12.98;;;6.60;;
79401;SDS011;68857;47.916;106.940;2023-10-31T08:26:23;15.65;;;7.40;;
79401;SDS011;68857;47.916;106.940;2023-10-31T08:28:50;14.77;;;7.57;;
79401;SDS011;68857;47.916;106.940;2023-10-31T08:31:17;12.55;;;6.75;;
79401;SDS011;68857;47.916;106.940;2023-10-31T08:33:44;13.32;;;6.57;;
79401;SDS011;68857;47.916;106.940;2023-10-31T08:36:11;12.98;;;6.15;;
79401;SDS011;68857;47.916;106.940;2023-10-31T08:38:38;14.82;;;6.95;;
79401;SDS011;68857;47.916;106.940;2023-10-31T08:41:04;14.02;;;6.38;;
79401;SDS011;68857;47.916;106.940;2023-10-31T08:45:57;16.17;;;6.70;;
79401;SDS011;68857;47.916;106.940;2023-10-31T08:50:50;13.35;;;6.75;;
79401;SDS011;68857;47.916;106.940;2023-10-31T08:53:16;14.52;;;6.95;;
79401;SDS011;68857;47.916;106.940;2023-10-31T08:55:44;16.58;;;6.70;;
79401;SDS011;68857;47.916;106.940;2023-10-31T08:58:12;12.38;;;6.95;;
79401;SDS011;68857;47.916;106.940;2023-10-31T09:00:39;14.23;;;6.68;;
79401;SDS011;68857;47.916;106.940;2023-10-31T09:03:08;12.13;;;6.25;;
79401;SDS011;68857;47.916;106.940;2023-10-31T09:05:35;13.23;;;6.60;;
79401;SDS011;68857;47.916;106.940;2023-10-31T09:08:01;11.75;;;7.07;;
79401;SDS011;68857;47.916;106.940;2023-10-31T09:10:28;13.85;;;7.18;;
79401;SDS011;68857;47.916;106.940;2023-10-31T09:12:55;13.32;;;6.40;;
79401;SDS011;68857;47.916;106.940;2023-10-31T09:15:21;11.95;;;7.43;;
79401;SDS011;68857;47.916;106.940;2023-10-31T09:17:48;13.30;;;6.18;;
79401;SDS011;68857;47.916;106.940;2023-10-31T09:20:14;13.13;;;5.75;;
79401;SDS011;68857;47.916;106.940;2023-10-31T09:22:41;12.88;;;6.35;;
79401;SDS011;68857;47.916;106.940;2023-10-31T09:27:34;13.93;;;6.15;;
79401;SDS011;68857;47.916;106.940;2023-10-31T09:32:26;11.00;;;5.55;;
79401;SDS011;68857;47.916;106.940;2023-10-31T09:34:53;13.00;;;5.78;;
79401;SDS011;68857;47.916;106.940;2023-10-31T09:37:20;10.73;;;5.00;;
79401;SDS011;68857;47.916;106.940;2023-10-31T09:42:13;12.63;;;5.05;;
79401;SDS011;68857;47.916;106.940;2023-10-31T09:44:39;9.68;;;4.20;;
79401;SDS011;68857;47.916;106.940;2023-10-31T09:47:06;9.57;;;4.85;;
79401;SDS011;68857;47.916;106.940;2023-10-31T09:49:33;10.50;;;4.97;;
79401;SDS011;68857;47.916;106.940;2023-10-31T09:52:00;7.25;;;4.00;;
79401;SDS011;68857;47.916;106.940;2023-10-31T09:54:28;10.13;;;4.82;;
79401;SDS011;68857;47.916;106.940;2023-10-31T09:56:55;10.25;;;4.70;;
79401;SDS011;68857;47.916;106.940;2023-10-31T10:01:48;9.95;;;4.45;;
79401;SDS011;68857;47.916;106.940;2023-10-31T10:04:15;10.18;;;4.10;;
79401;SDS011;68857;47.916;106.940;2023-10-31T10:06:59;9.20;;;4.40;;
79401;SDS011;68857;47.916;106.940;2023-10-31T10:09:26;8.68;;;4.28;;
79401;SDS011;68857;47.916;106.940;2023-10-31T10:11:53;8.38;;;4.28;;
79401;SDS011;68857;47.916;106.940;2023-10-31T10:14:21;8.65;;;4.88;;
79401;SDS011;68857;47.916;106.940;2023-10-31T10:16:48;8.48;;;4.53;;
79401;SDS011;68857;47.916;106.940;2023-10-31T10:21:52;13.82;;;6.40;;
79401;SDS011;68857;47.916;106.940;2023-10-31T10:24:19;14.45;;;6.88;;
79401;SDS011;68857;47.916;106.940;2023-10-31T10:26:46;17.13;;;8.65;;
79401;SDS011;68857;47.916;106.940;2023-10-31T10:29:13;25.15;;;11.93;;
79401;SDS011;68857;47.916;106.940;2023-10-31T10:31:40;26.25;;;13.30;;
79401;SDS011;68857;47.916;106.940;2023-10-31T10:34:08;36.53;;;15.65;;
79401;SDS011;68857;47.916;106.940;2023-10-31T10:36:34;41.75;;;19.05;;
79401;SDS011;68857;47.916;106.940;2023-10-31T10:39:01;39.10;;;20.33;;
79401;SDS011;68857;47.916;106.940;2023-10-31T10:41:29;42.72;;;20.00;;
79401;SDS011;68857;47.916;106.940;2023-10-31T10:43:56;45.45;;;21.27;;
79401;SDS011;68857;47.916;106.940;2023-10-31T10:46:26;45.70;;;21.67;;
79401;SDS011;68857;47.916;106.940;2023-10-31T10:48:55;44.38;;;23.27;;
79401;SDS011;68857;47.916;106.940;2023-10-31T10:51:29;53.13;;;25.27;;
79401;SDS011;68857;47.916;106.940;2023-10-31T10:53:57;52.25;;;24.05;;
79401;SDS011;68857;47.916;106.940;2023-10-31T10:56:26;54.65;;;27.10;;
79401;SDS011;68857;47.916;106.940;2023-10-31T10:59:00;56.25;;;24.10;;
79401;SDS011;68857;47.916;106.940;2023-10-31T11:01:28;49.15;;;24.58;;
79401;SDS011;68857;47.916;106.940;2023-10-31T11:03:57;50.38;;;24.20;;
79401;SDS011;68857;47.916;106.940;2023-10-31T11:06:25;49.63;;;24.55;;
79401;SDS011;68857;47.916;106.940;2023-10-31T11:08:52;52.22;;;23.75;;
79401;SDS011;68857;47.916;106.940;2023-10-31T11:11:19;49.40;;;24.55;;
79401;SDS011;68857;47.916;106.940;2023-10-31T11:13:46;47.58;;;22.52;;
79401;SDS011;68857;47.916;106.940;2023-10-31T11:16:17;45.45;;;21.23;;
79401;SDS011;68857;47.916;106.940;2023-10-31T11:18:44;46.28;;;21.05;;
79401;SDS011;68857;47.916;106.940;2023-10-31T11:21:11;38.72;;;19.00;;
79401;SDS011;68857;47.916;106.940;2023-10-31T11:23:37;42.80;;;19.50;;
79401;SDS011;68857;47.916;106.940;2023-10-31T11:26:06;39.50;;;19.98;;
79401;SDS011;68857;47.916;106.940;2023-10-31T11:28:36;38.75;;;17.85;;
79401;SDS011;68857;47.916;106.940;2023-10-31T11:31:03;34.53;;;17.52;;
79401;SDS011;68857;47.916;106.940;2023-10-31T11:33:29;34.10;;;16.70;;
79401;SDS011;68857;47.916;106.940;2023-10-31T11:36:00;34.78;;;16.05;;
79401;SDS011;68857;47.916;106.940;2023-10-31T11:38:31;37.65;;;16.48;;
79401;SDS011;68857;47.916;106.940;2023-10-31T11:41:01;34.88;;;16.27;;
79401;SDS011;68857;47.916;106.940;2023-10-31T11:46:03;35.67;;;18.83;;
79401;SDS011;68857;47.916;106.940;2023-10-31T11:48:50;40.45;;;18.45;;
79401;SDS011;68857;47.916;106.940;2023-10-31T11:51:17;42.22;;;20.65;;
79401;SDS011;68857;47.916;106.940;2023-10-31T11:56:10;49.20;;;22.13;;
79401;SDS011;68857;47.916;106.940;2023-10-31T11:58:37;50.72;;;22.30;;
79401;SDS011;68857;47.916;106.940;2023-10-31T12:01:04;47.80;;;22.92;;
79401;SDS011;68857;47.916;106.940;2023-10-31T12:03:41;48.80;;;23.42;;
79401;SDS011;68857;47.916;106.940;2023-10-31T12:06:08;48.50;;;22.70;;
79401;SDS011;68857;47.916;106.940;2023-10-31T12:08:41;46.08;;;22.80;;
79401;SDS011;68857;47.916;106.940;2023-10-31T12:11:09;52.08;;;23.63;;
79401;SDS011;68857;47.916;106.940;2023-10-31T12:13:40;46.58;;;22.27;;
79401;SDS011;68857;47.916;106.940;2023-10-31T12:16:10;57.10;;;24.80;;
79401;SDS011;68857;47.916;106.940;2023-10-31T12:18:38;47.67;;;23.95;;
79401;SDS011;68857;47.916;106.940;2023-10-31T12:21:04;49.20;;;23.58;;
79401;SDS011;68857;47.916;106.940;2023-10-31T12:23:33;53.58;;;24.67;;
79401;SDS011;68857;47.916;106.940;2023-10-31T12:26:00;50.75;;;24.40;;
79401;SDS011;68857;47.916;106.940;2023-10-31T12:28:26;49.58;;;25.00;;
79401;SDS011;68857;47.916;106.940;2023-10-31T12:30:54;48.83;;;22.42;;
79401;SDS011;68857;47.916;106.940;2023-10-31T12:33:21;45.80;;;24.23;;
79401;SDS011;68857;47.916;106.940;2023-10-31T12:35:51;49.13;;;22.70;;
79401;SDS011;68857;47.916;106.940;2023-10-31T12:38:18;52.03;;;24.13;;
79401;SDS011;68857;47.916;106.940;2023-10-31T12:40:45;45.40;;;23.15;;
79401;SDS011;68857;47.916;106.940;2023-10-31T12:43:12;47.78;;;26.20;;
79401;SDS011;68857;47.916;106.940;2023-10-31T12:45:39;44.88;;;22.13;;
79401;SDS011;68857;47.916;106.940;2023-10-31T12:50:32;49.47;;;23.30;;
79401;SDS011;68857;47.916;106.940;2023-10-31T12:52:59;50.92;;;23.00;;
79401;SDS011;68857;47.916;106.940;2023-10-31T12:55:29;50.70;;;24.05;;
79401;SDS011;68857;47.916;106.940;2023-10-31T12:57:56;53.72;;;24.55;;
79401;SDS011;68857;47.916;106.940;2023-10-31T13:00:30;48.13;;;23.13;;
79401;SDS011;68857;47.916;106.940;2023-10-31T13:03:01;46.92;;;23.60;;
79401;SDS011;68857;47.916;106.940;2023-10-31T13:05:28;49.03;;;23.75;;
79401;SDS011;68857;47.916;106.940;2023-10-31T13:07:56;47.08;;;22.92;;
79401;SDS011;68857;47.916;106.940;2023-10-31T13:10:23;50.28;;;23.55;;
79401;SDS011;68857;47.916;106.940;2023-10-31T13:12:50;49.28;;;23.75;;
79401;SDS011;68857;47.916;106.940;2023-10-31T13:15:18;54.47;;;23.65;;
79401;SDS011;68857;47.916;106.940;2023-10-31T13:17:45;46.50;;;22.67;;
79401;SDS011;68857;47.916;106.940;2023-10-31T13:20:12;44.13;;;21.42;;
79401;SDS011;68857;47.916;106.940;2023-10-31T13:22:39;42.00;;;21.13;;
79401;SDS011;68857;47.916;106.940;2023-10-31T13:25:07;48.97;;;23.00;;
79401;SDS011;68857;47.916;106.940;2023-10-31T13:27:43;44.45;;;21.42;;
79401;SDS011;68857;47.916;106.940;2023-10-31T13:30:10;40.75;;;19.27;;
79401;SDS011;68857;47.916;106.940;2023-10-31T13:32:41;45.38;;;21.48;;
79401;SDS011;68857;47.916;106.940;2023-10-31T13:35:08;39.58;;;18.25;;
79401;SDS011;68857;47.916;106.940;2023-10-31T13:37:39;44.75;;;19.98;;
79401;SDS011;68857;47.916;106.940;2023-10-31T13:40:06;38.80;;;19.77;;
79401;SDS011;68857;47.916;106.940;2023-10-31T13:42:36;41.08;;;18.33;;
79401;SDS011;68857;47.916;106.940;2023-10-31T13:45:03;35.08;;;19.05;;
79401;SDS011;68857;47.916;106.940;2023-10-31T13:47:30;37.53;;;19.50;;
79401;SDS011;68857;47.916;106.940;2023-10-31T13:49:56;42.03;;;19.92;;
79401;SDS011;68857;47.916;106.940;2023-10-31T13:52:27;44.88;;;22.65;;
79401;SDS011;68857;47.916;106.940;2023-10-31T13:54:53;45.80;;;20.73;;
79401;SDS011;68857;47.916;106.940;2023-10-31T13:57:20;40.28;;;20.70;;
79401;SDS011;68857;47.916;106.940;2023-10-31T13:59:47;40.95;;;20.02;;
79401;SDS011;68857;47.916;106.940;2023-10-31T14:02:13;40.92;;;21.00;;
79401;SDS011;68857;47.916;106.940;2023-10-31T14:04:42;46.58;;;22.83;;
79401;SDS011;68857;47.916;106.940;2023-10-31T14:07:10;50.15;;;22.75;;
79401;SDS011;68857;47.916;106.940;2023-10-31T14:09:37;44.10;;;23.42;;
79401;SDS011;68857;47.916;106.940;2023-10-31T14:12:04;45.50;;;22.80;;
79401;SDS011;68857;47.916;106.940;2023-10-31T14:14:31;46.17;;;23.20;;
79401;SDS011;68857;47.916;106.940;2023-10-31T14:16:57;50.45;;;24.63;;
79401;SDS011;68857;47.916;106.940;2023-10-31T14:19:24;53.03;;;24.80;;
79401;SDS011;68857;47.916;106.940;2023-10-31T14:21:50;49.75;;;25.35;;
79401;SDS011;68857;47.916;106.940;2023-10-31T14:24:17;53.03;;;25.08;;
79401;SDS011;68857;47.916;106.940;2023-10-31T14:26:44;55.95;;;25.55;;
79401;SDS011;68857;47.916;106.940;2023-10-31T14:29:11;53.00;;;26.25;;
79401;SDS011;68857;47.916;106.940;2023-10-31T14:31:41;55.55;;;26.90;;
79401;SDS011;68857;47.916;106.940;2023-10-31T14:34:07;55.17;;;27.13;;
79401;SDS011;68857;47.916;106.940;2023-10-31T14:36:34;56.33;;;28.75;;
79401;SDS011;68857;47.916;106.940;2023-10-31T14:39:01;59.92;;;28.63;;
79401;SDS011;68857;47.916;106.940;2023-10-31T14:41:28;55.88;;;28.08;;
79401;SDS011;68857;47.916;106.940;2023-10-31T14:43:58;59.67;;;29.85;;
79401;SDS011;68857;47.916;106.940;2023-10-31T14:46:25;56.60;;;28.92;;
79401;SDS011;68857;47.916;106.940;2023-10-31T14:48:52;61.45;;;28.25;;
79401;SDS011;68857;47.916;106.940;2023-10-31T14:51:19;58.85;;;29.10;;
79401;SDS011;68857;47.916;106.940;2023-10-31T14:53:46;55.35;;;28.17;;
79401;SDS011;68857;47.916;106.940;2023-10-31T14:56:12;56.97;;;29.83;;
79401;SDS011;68857;47.916;106.940;2023-10-31T14:58:39;56.67;;;28.17;;
79401;SDS011;68857;47.916;106.940;2023-10-31T15:01:07;58.17;;;28.38;;
79401;SDS011;68857;47.916;106.940;2023-10-31T15:03:34;58.47;;;28.33;;
79401;SDS011;68857;47.916;106.940;2023-10-31T15:06:01;60.33;;;29.42;;
79401;SDS011;68857;47.916;106.940;2023-10-31T15:08:28;58.88;;;28.58;;
79401;SDS011;68857;47.916;106.940;2023-10-31T15:10:54;53.42;;;25.65;;
79401;SDS011;68857;47.916;106.940;2023-10-31T15:13:21;56.05;;;28.70;;